sensor_id;sensor_type;location;lat;lon;timestamp;pressure;altitude;pressure_sealevel;temperature;humidity
85623;BME280;76049;43.076;25.632;2024-03-23T00:57:35;99613.20;;;3.65;61.02
85623;BME280;76049;43.076;25.632;2024-03-23T01:02:43;99610.61;;;3.61;61.27
85623;BME280;76049;43.076;25.632;2024-03-23T01:07:51;99609.17;;;3.58;61.23
85623;BME280;76049;43.076;25.632;2024-03-23T01:12:58;99607.70;;;3.57;61.31
85623;BME280;76049;43.076;25.632;2024-03-23T01:18:06;99601.60;;;3.50;61.42
85623;BME280;76049;43.076;25.632;2024-03-23T01:23:32;99600.69;;;3.48;61.41
85623;BME280;76049;43.076;25.632;2024-03-23T01:28:38;99603.72;;;3.49;61.35
85623;BME280;76049;43.076;25.632;2024-03-23T01:33:45;99599.05;;;3.48;61.40
85623;BME280;76049;43.076;25.632;2024-03-23T01:38:53;99596.67;;;3.45;61.10
85623;BME280;76049;43.076;25.632;2024-03-23T01:44:04;99591.84;;;3.43;61.45
85623;BME280;76049;43.076;25.632;2024-03-23T01:49:12;99590.98;;;3.42;61.20
85623;BME280;76049;43.076;25.632;2024-03-23T01:54:20;99589.81;;;3.43;61.22
85623;BME280;76049;43.076;25.632;2024-03-23T01:59:27;99585.59;;;3.40;61.28
85623;BME280;76049;43.076;25.632;2024-03-23T02:04:34;99588.77;;;3.38;61.48
85623;BME280;76049;43.076;25.632;2024-03-23T02:09:41;99588.39;;;3.34;61.53
85623;BME280;76049;43.076;25.632;2024-03-23T02:14:48;99588.55;;;3.30;61.62
85623;BME280;76049;43.076;25.632;2024-03-23T02:19:54;99588.60;;;3.24;61.78
85623;BME280;76049;43.076;25.632;2024-03-23T02:25:01;99588.50;;;3.29;61.48
85623;BME280;76049;43.076;25.632;2024-03-23T02:30:10;99588.95;;;3.29;61.58
85623;BME280;76049;43.076;25.632;2024-03-23T02:35:17;99589.14;;;3.27;61.59
85623;BME280;76049;43.076;25.632;2024-03-23T02:40:24;99590.63;;;3.33;63.56
85623;BME280;76049;43.076;25.632;2024-03-23T02:45:31;99587.80;;;3.46;61.69
85623;BME280;76049;43.076;25.632;2024-03-23T02:50:38;99586.52;;;3.37;61.39
85623;BME280;76049;43.076;25.632;2024-03-23T02:55:45;99585.55;;;3.30;61.48
85623;BME280;76049;43.076;25.632;2024-03-23T03:00:52;99587.17;;;3.23;61.37
85623;BME280;76049;43.076;25.632;2024-03-23T03:06:00;99586.08;;;3.12;61.71
85623;BME280;76049;43.076;25.632;2024-03-23T03:11:07;99587.19;;;3.03;61.85
85623;BME280;76049;43.076;25.632;2024-03-23T03:16:13;99581.36;;;3.08;61.77
85623;BME280;76049;43.076;25.632;2024-03-23T03:21:20;99581.30;;;3.14;61.67
85623;BME280;76049;43.076;25.632;2024-03-23T03:26:27;99590.22;;;3.05;61.80
85623;BME280;76049;43.076;25.632;2024-03-23T03:31:34;99588.41;;;2.94;61.83
85623;BME280;76049;43.076;25.632;2024-03-23T03:36:41;99585.19;;;2.85;62.12
85623;BME280;76049;43.076;25.632;2024-03-23T03:41:48;99586.80;;;2.71;62.46
85623;BME280;76049;43.076;25.632;2024-03-23T03:46:55;99586.28;;;2.67;62.70
85623;BME280;76049;43.076;25.632;2024-03-23T03:52:02;99588.61;;;2.70;62.69
85623;BME280;76049;43.076;25.632;2024-03-23T03:57:09;99587.27;;;2.69;62.65
85623;BME280;76049;43.076;25.632;2024-03-23T04:02:16;99587.95;;;2.64;62.84
85623;BME280;76049;43.076;25.632;2024-03-23T04:07:23;99596.02;;;2.69;62.79
85623;BME280;76049;43.076;25.632;2024-03-23T04:12:29;99592.75;;;2.79;62.53
85623;BME280;76049;43.076;25.632;2024-03-23T04:17:36;99592.50;;;2.86;62.32
85623;BME280;76049;43.076;25.632;2024-03-23T04:22:43;99588.55;;;2.88;62.04
85623;BME280;76049;43.076;25.632;2024-03-23T04:27:50;99589.69;;;2.86;62.08
85623;BME280;76049;43.076;25.632;2024-03-23T04:32:56;99591.55;;;2.84;62.16
85623;BME280;76049;43.076;25.632;2024-03-23T04:38:04;99590.77;;;2.83;62.30
85623;BME280;76049;43.076;25.632;2024-03-23T04:43:10;99589.19;;;2.84;62.09
85623;BME280;76049;43.076;25.632;2024-03-23T04:48:18;99587.23;;;2.95;62.32
85623;BME280;76049;43.076;25.632;2024-03-23T04:53:26;99594.42;;;3.31;62.04
85623;BME280;76049;43.076;25.632;2024-03-23T04:58:34;99593.54;;;3.81;61.35
85623;BME280;76049;43.076;25.632;2024-03-23T05:03:41;99591.52;;;4.42;59.73
85623;BME280;76049;43.076;25.632;2024-03-23T05:08:47;99594.41;;;4.92;58.69
85623;BME280;76049;43.076;25.632;2024-03-23T05:13:54;99594.81;;;5.39;57.48
85623;BME280;76049;43.076;25.632;2024-03-23T05:19:02;99596.55;;;5.85;56.24
85623;BME280;76049;43.076;25.632;2024-03-23T05:24:09;99594.84;;;6.44;55.01
85623;BME280;76049;43.076;25.632;2024-03-23T05:29:17;99598.11;;;7.04;53.47
85623;BME280;76049;43.076;25.632;2024-03-23T05:34:24;99603.84;;;7.56;52.21
85623;BME280;76049;43.076;25.632;2024-03-23T05:39:31;99595.40;;;8.19;51.21
85623;BME280;76049;43.076;25.632;2024-03-23T05:44:38;99591.02;;;8.87;49.70
85623;BME280;76049;43.076;25.632;2024-03-23T05:49:45;99588.08;;;9.44;48.48
85623;BME280;76049;43.076;25.632;2024-03-23T05:54:52;99586.81;;;9.94;47.00
85623;BME280;76049;43.076;25.632;2024-03-23T05:59:59;99579.28;;;10.41;45.66
85623;BME280;76049;43.076;25.632;2024-03-23T06:05:06;99579.89;;;10.95;44.74
85623;BME280;76049;43.076;25.632;2024-03-23T06:10:13;99576.33;;;11.30;43.72
85623;BME280;76049;43.076;25.632;2024-03-23T06:15:20;99576.98;;;11.66;42.89
85623;BME280;76049;43.076;25.632;2024-03-23T06:20:27;99575.38;;;12.06;42.03
85623;BME280;76049;43.076;25.632;2024-03-23T06:25:34;99569.46;;;12.37;41.42
85623;BME280;76049;43.076;25.632;2024-03-23T06:30:41;99565.88;;;12.68;40.73
85623;BME280;76049;43.076;25.632;2024-03-23T06:35:52;99555.77;;;13.12;40.01
85623;BME280;76049;43.076;25.632;2024-03-23T06:40:59;99553.70;;;13.55;39.37
85623;BME280;76049;43.076;25.632;2024-03-23T06:46:06;99553.89;;;14.07;38.35
85623;BME280;76049;43.076;25.632;2024-03-23T06:51:13;99551.08;;;14.82;37.35
85623;BME280;76049;43.076;25.632;2024-03-23T06:56:20;99549.34;;;15.75;36.24
85623;BME280;76049;43.076;25.632;2024-03-23T07:01:44;99545.59;;;16.59;34.52
85623;BME280;76049;43.076;25.632;2024-03-23T07:06:52;99541.97;;;17.30;32.97
85623;BME280;76049;43.076;25.632;2024-03-23T07:11:59;99536.19;;;17.92;32.03
85623;BME280;76049;43.076;25.632;2024-03-23T07:17:06;99534.89;;;18.40;30.80
85623;BME280;76049;43.076;25.632;2024-03-23T07:22:13;99530.91;;;18.81;29.82
85623;BME280;76049;43.076;25.632;2024-03-23T07:27:20;99527.02;;;18.96;29.19
85623;BME280;76049;43.076;25.632;2024-03-23T07:32:29;99526.86;;;19.09;29.03
85623;BME280;76049;43.076;25.632;2024-03-23T07:37:36;99518.30;;;19.31;28.67
85623;BME280;76049;43.076;25.632;2024-03-23T07:42:44;99514.98;;;19.48;28.18
85623;BME280;76049;43.076;25.632;2024-03-23T07:47:51;99504.68;;;19.53;27.95
85623;BME280;76049;43.076;25.632;2024-03-23T07:52:58;99498.28;;;19.66;27.77
85623;BME280;76049;43.076;25.632;2024-03-23T07:58:05;99487.83;;;19.85;27.39
85623;BME280;76049;43.076;25.632;2024-03-23T08:03:12;99484.98;;;19.85;27.00
85623;BME280;76049;43.076;25.632;2024-03-23T08:08:19;99479.87;;;19.89;26.79
85623;BME280;76049;43.076;25.632;2024-03-23T08:13:26;99477.83;;;20.14;26.46
85623;BME280;76049;43.076;25.632;2024-03-23T08:18:33;99476.05;;;20.52;26.03
85623;BME280;76049;43.076;25.632;2024-03-23T08:23:40;99468.98;;;20.76;24.63
85623;BME280;76049;43.076;25.632;2024-03-23T08:28:47;99459.97;;;20.70;23.64
85623;BME280;76049;43.076;25.632;2024-03-23T08:33:54;99455.93;;;20.91;23.10
85623;BME280;76049;43.076;25.632;2024-03-23T08:39:01;99449.95;;;20.89;24.52
85623;BME280;76049;43.076;25.632;2024-03-23T08:44:09;99446.52;;;21.15;33.99
85623;BME280;76049;43.076;25.632;2024-03-23T08:49:16;99446.54;;;21.50;33.29
85623;BME280;76049;43.076;25.632;2024-03-23T08:54:23;99435.59;;;21.80;34.07
85623;BME280;76049;43.076;25.632;2024-03-23T08:59:33;99427.98;;;22.07;33.96
85623;BME280;76049;43.076;25.632;2024-03-23T09:04:40;99424.20;;;22.28;34.57
85623;BME280;76049;43.076;25.632;2024-03-23T09:09:46;99418.83;;;22.23;31.73
85623;BME280;76049;43.076;25.632;2024-03-23T09:14:53;99412.98;;;22.24;34.02
85623;BME280;76049;43.076;25.632;2024-03-23T09:20:00;99408.64;;;22.34;34.07
85623;BME280;76049;43.076;25.632;2024-03-23T09:25:09;99402.52;;;22.42;33.54
85623;BME280;76049;43.076;25.632;2024-03-23T09:30:16;99394.94;;;22.42;33.42
85623;BME280;76049;43.076;25.632;2024-03-23T09:35:23;99388.67;;;22.36;31.77
85623;BME280;76049;43.076;25.632;2024-03-23T09:40:30;99374.85;;;21.95;30.53
85623;BME280;76049;43.076;25.632;2024-03-23T09:45:40;99369.40;;;21.95;32.27
85623;BME280;76049;43.076;25.632;2024-03-23T09:50:47;99364.52;;;22.01;29.27
85623;BME280;76049;43.076;25.632;2024-03-23T09:55:55;99361.38;;;21.80;22.48
85623;BME280;76049;43.076;25.632;2024-03-23T10:01:05;99348.66;;;21.46;20.49
85623;BME280;76049;43.076;25.632;2024-03-23T10:06:22;99345.67;;;20.90;20.18
85623;BME280;76049;43.076;25.632;2024-03-23T10:11:31;99332.73;;;20.58;20.39
85623;BME280;76049;43.076;25.632;2024-03-23T10:16:38;99324.63;;;20.47;20.29
85623;BME280;76049;43.076;25.632;2024-03-23T10:21:53;99315.30;;;20.36;20.03
85623;BME280;76049;43.076;25.632;2024-03-23T10:27:00;99306.70;;;20.24;19.99
85623;BME280;76049;43.076;25.632;2024-03-23T10:32:11;99301.04;;;20.10;20.02
85623;BME280;76049;43.076;25.632;2024-03-23T10:37:18;99290.73;;;19.97;19.92
85623;BME280;76049;43.076;25.632;2024-03-23T10:42:25;99278.38;;;19.80;19.64
85623;BME280;76049;43.076;25.632;2024-03-23T10:47:33;99267.92;;;19.47;19.87
85623;BME280;76049;43.076;25.632;2024-03-23T10:52:47;99257.27;;;19.29;20.32
85623;BME280;76049;43.076;25.632;2024-03-23T10:57:56;99252.36;;;19.29;20.58
85623;BME280;76049;43.076;25.632;2024-03-23T11:03:32;99241.25;;;19.26;20.27
85623;BME280;76049;43.076;25.632;2024-03-23T11:08:40;99232.61;;;19.05;20.21
85623;BME280;76049;43.076;25.632;2024-03-23T11:13:49;99222.17;;;18.95;20.70
85623;BME280;76049;43.076;25.632;2024-03-23T11:19:34;99212.92;;;18.90;20.68
85623;BME280;76049;43.076;25.632;2024-03-23T11:24:42;99198.23;;;18.92;20.81
85623;BME280;76049;43.076;25.632;2024-03-23T11:29:48;99191.77;;;18.87;20.74
85623;BME280;76049;43.076;25.632;2024-03-23T11:34:55;99184.61;;;18.92;20.95
85623;BME280;76049;43.076;25.632;2024-03-23T11:40:02;99176.42;;;18.93;20.90
85623;BME280;76049;43.076;25.632;2024-03-23T11:45:22;99160.88;;;18.91;20.93
85623;BME280;76049;43.076;25.632;2024-03-23T11:50:29;99155.39;;;18.93;20.99
85623;BME280;76049;43.076;25.632;2024-03-23T11:55:47;99147.25;;;18.93;21.07
85623;BME280;76049;43.076;25.632;2024-03-23T12:00:57;99135.01;;;18.93;20.97
85623;BME280;76049;43.076;25.632;2024-03-23T12:06:05;99131.23;;;18.92;21.23
85623;BME280;76049;43.076;25.632;2024-03-23T12:11:14;99119.69;;;18.99;21.48
85623;BME280;76049;43.076;25.632;2024-03-23T12:16:24;99107.73;;;19.14;21.73
85623;BME280;76049;43.076;25.632;2024-03-23T12:21:33;99099.52;;;19.21;21.59
85623;BME280;76049;43.076;25.632;2024-03-23T12:26:39;99095.41;;;19.23;21.30
85623;BME280;76049;43.076;25.632;2024-03-23T12:31:46;99086.64;;;19.25;21.15
85623;BME280;76049;43.076;25.632;2024-03-23T12:36:53;99079.02;;;19.24;21.13
85623;BME280;76049;43.076;25.632;2024-03-23T12:42:00;99071.69;;;19.13;21.16
85623;BME280;76049;43.076;25.632;2024-03-23T12:47:08;99066.13;;;19.07;21.33
85623;BME280;76049;43.076;25.632;2024-03-23T12:52:16;99058.60;;;19.11;21.36
85623;BME280;76049;43.076;25.632;2024-03-23T12:57:23;99059.52;;;19.19;21.39
85623;BME280;76049;43.076;25.632;2024-03-23T13:02:30;99047.52;;;19.28;21.56
85623;BME280;76049;43.076;25.632;2024-03-23T13:07:37;99038.27;;;19.36;21.47
85623;BME280;76049;43.076;25.632;2024-03-23T13:12:45;99034.98;;;19.36;21.74
85623;BME280;76049;43.076;25.632;2024-03-23T13:17:52;99023.71;;;19.41;21.90
85623;BME280;76049;43.076;25.632;2024-03-23T13:22:59;99016.60;;;19.47;21.96
85623;BME280;76049;43.076;25.632;2024-03-23T13:28:07;99006.77;;;19.53;21.70
85623;BME280;76049;43.076;25.632;2024-03-23T13:33:14;99001.20;;;19.60;21.46
85623;BME280;76049;43.076;25.632;2024-03-23T13:38:22;98995.91;;;19.68;21.37
85623;BME280;76049;43.076;25.632;2024-03-23T13:43:29;98991.36;;;19.72;21.28
85623;BME280;76049;43.076;25.632;2024-03-23T13:48:36;98987.56;;;19.76;21.64
85623;BME280;76049;43.076;25.632;2024-03-23T13:53:42;98983.20;;;19.78;21.44
85623;BME280;76049;43.076;25.632;2024-03-23T13:58:49;98973.28;;;19.77;21.25
85623;BME280;76049;43.076;25.632;2024-03-23T14:03:57;98971.52;;;19.76;21.33
85623;BME280;76049;43.076;25.632;2024-03-23T14:09:04;98966.74;;;19.74;21.56
85623;BME280;76049;43.076;25.632;2024-03-23T14:14:14;98962.31;;;19.71;21.29
85623;BME280;76049;43.076;25.632;2024-03-23T14:19:22;98952.53;;;19.68;21.23
85623;BME280;76049;43.076;25.632;2024-03-23T14:24:29;98944.77;;;19.70;21.46
85623;BME280;76049;43.076;25.632;2024-03-23T14:29:36;98947.64;;;19.74;21.23
85623;BME280;76049;43.076;25.632;2024-03-23T14:34:42;98946.02;;;19.76;20.97
85623;BME280;76049;43.076;25.632;2024-03-23T14:39:49;98937.94;;;19.74;20.99
85623;BME280;76049;43.076;25.632;2024-03-23T14:44:56;98937.64;;;19.75;21.07
85623;BME280;76049;43.076;25.632;2024-03-23T14:50:03;98932.22;;;19.72;21.32
85623;BME280;76049;43.076;25.632;2024-03-23T14:55:09;98927.73;;;19.71;21.32
85623;BME280;76049;43.076;25.632;2024-03-23T15:00:18;98922.31;;;19.67;21.25
85623;BME280;76049;43.076;25.632;2024-03-23T15:05:25;98916.73;;;19.60;21.37
85623;BME280;76049;43.076;25.632;2024-03-23T15:10:33;98916.19;;;19.52;21.43
85623;BME280;76049;43.076;25.632;2024-03-23T15:15:41;98917.33;;;19.46;21.53
85623;BME280;76049;43.076;25.632;2024-03-23T15:20:54;98915.98;;;19.41;21.71
85623;BME280;76049;43.076;25.632;2024-03-23T15:26:02;98910.60;;;19.37;21.80
85623;BME280;76049;43.076;25.632;2024-03-23T15:31:09;98905.12;;;19.30;21.96
85623;BME280;76049;43.076;25.632;2024-03-23T15:36:16;98902.91;;;19.25;22.13
85623;BME280;76049;43.076;25.632;2024-03-23T15:41:23;98902.40;;;19.22;22.17
85623;BME280;76049;43.076;25.632;2024-03-23T15:46:30;98898.42;;;19.19;22.17
85623;BME280;76049;43.076;25.632;2024-03-23T15:51:37;98897.84;;;19.11;22.08
85623;BME280;76049;43.076;25.632;2024-03-23T15:56:47;98897.48;;;18.96;22.24
85623;BME280;76049;43.076;25.632;2024-03-23T16:01:54;98905.39;;;18.82;22.56
85623;BME280;76049;43.076;25.632;2024-03-23T16:07:01;98902.00;;;18.61;22.51
85623;BME280;76049;43.076;25.632;2024-03-23T16:12:08;98903.16;;;18.43;23.17
85623;BME280;76049;43.076;25.632;2024-03-23T16:17:15;98904.27;;;18.25;23.38
85623;BME280;76049;43.076;25.632;2024-03-23T16:22:39;98908.82;;;18.06;23.74
85623;BME280;76049;43.076;25.632;2024-03-23T16:27:46;98913.82;;;17.83;24.04
85623;BME280;76049;43.076;25.632;2024-03-23T16:32:53;98912.29;;;17.58;24.53
85623;BME280;76049;43.076;25.632;2024-03-23T16:38:00;98907.84;;;17.31;25.02
85623;BME280;76049;43.076;25.632;2024-03-23T16:43:07;98909.80;;;17.10;25.40
85623;BME280;76049;43.076;25.632;2024-03-23T16:48:13;98913.94;;;16.90;25.80
85623;BME280;76049;43.076;25.632;2024-03-23T16:53:20;98920.17;;;16.70;26.13
85623;BME280;76049;43.076;25.632;2024-03-23T16:58:28;98915.94;;;16.51;26.39
85623;BME280;76049;43.076;25.632;2024-03-23T17:03:35;98917.45;;;16.28;26.74
85623;BME280;76049;43.076;25.632;2024-03-23T17:08:42;98918.67;;;16.10;27.12
85623;BME280;76049;43.076;25.632;2024-03-23T17:13:52;98916.42;;;15.91;27.25
85623;BME280;76049;43.076;25.632;2024-03-23T17:18:59;98920.59;;;15.79;27.45
85623;BME280;76049;43.076;25.632;2024-03-23T17:24:07;98921.27;;;15.67;27.46
85623;BME280;76049;43.076;25.632;2024-03-23T17:29:14;98923.93;;;15.54;27.68
85623;BME280;76049;43.076;25.632;2024-03-23T17:34:25;98924.73;;;15.41;27.77
85623;BME280;76049;43.076;25.632;2024-03-23T17:39:32;98927.02;;;15.26;27.92
85623;BME280;76049;43.076;25.632;2024-03-23T17:44:39;98927.02;;;15.15;28.08
85623;BME280;76049;43.076;25.632;2024-03-23T17:49:46;98923.41;;;15.06;27.91
85623;BME280;76049;43.076;25.632;2024-03-23T17:54:53;98922.61;;;14.99;28.05
85623;BME280;76049;43.076;25.632;2024-03-23T17:59:59;98916.06;;;14.90;27.99
85623;BME280;76049;43.076;25.632;2024-03-23T18:05:07;98915.20;;;14.87;28.08
85623;BME280;76049;43.076;25.632;2024-03-23T18:10:14;98913.02;;;14.82;28.11
85623;BME280;76049;43.076;25.632;2024-03-23T18:15:21;98909.94;;;14.75;28.05
85623;BME280;76049;43.076;25.632;2024-03-23T18:20:28;98906.42;;;14.66;28.21
85623;BME280;76049;43.076;25.632;2024-03-23T18:25:35;98910.75;;;14.62;28.26
85623;BME280;76049;43.076;25.632;2024-03-23T18:30:42;98905.45;;;14.58;28.36
85623;BME280;76049;43.076;25.632;2024-03-23T18:35:52;98900.02;;;14.50;28.39
85623;BME280;76049;43.076;25.632;2024-03-23T18:40:59;98902.31;;;14.45;28.39
85623;BME280;76049;43.076;25.632;2024-03-23T18:46:06;98899.14;;;14.43;28.58
85623;BME280;76049;43.076;25.632;2024-03-23T18:51:13;98894.92;;;14.42;28.50
85623;BME280;76049;43.076;25.632;2024-03-23T18:56:20;98890.05;;;14.40;28.41
85623;BME280;76049;43.076;25.632;2024-03-23T19:01:28;98886.84;;;14.38;28.47
85623;BME280;76049;43.076;25.632;2024-03-23T19:06:35;98883.61;;;14.37;28.32
85623;BME280;76049;43.076;25.632;2024-03-23T19:11:42;98884.10;;;14.36;28.23
85623;BME280;76049;43.076;25.632;2024-03-23T19:16:49;98884.52;;;14.34;28.26
85623;BME280;76049;43.076;25.632;2024-03-23T19:22:00;98876.98;;;14.30;28.05
85623;BME280;76049;43.076;25.632;2024-03-23T19:27:07;98878.27;;;14.26;28.08
85623;BME280;76049;43.076;25.632;2024-03-23T19:32:15;98875.34;;;14.23;28.09
85623;BME280;76049;43.076;25.632;2024-03-23T19:37:23;98873.08;;;14.17;28.09
85623;BME280;76049;43.076;25.632;2024-03-23T19:42:30;98866.31;;;14.13;28.21
85623;BME280;76049;43.076;25.632;2024-03-23T19:47:37;98860.27;;;14.08;28.17
85623;BME280;76049;43.076;25.632;2024-03-23T19:52:44;98855.88;;;14.04;28.24
85623;BME280;76049;43.076;25.632;2024-03-23T19:57:54;98849.43;;;14.00;28.25
85623;BME280;76049;43.076;25.632;2024-03-23T20:03:01;98849.84;;;14.02;28.34
85623;BME280;76049;43.076;25.632;2024-03-23T20:08:12;98850.52;;;14.00;28.37
85623;BME280;76049;43.076;25.632;2024-03-23T20:13:18;98847.85;;;13.96;28.45
85623;BME280;76049;43.076;25.632;2024-03-23T20:18:26;98845.46;;;13.93;28.46
85623;BME280;76049;43.076;25.632;2024-03-23T20:23:34;98840.91;;;13.89;28.60
85623;BME280;76049;43.076;25.632;2024-03-23T20:28:40;98835.01;;;13.85;28.80
85623;BME280;76049;43.076;25.632;2024-03-23T20:33:48;98833.17;;;13.79;29.23
85623;BME280;76049;43.076;25.632;2024-03-23T20:38:55;98834.83;;;13.77;29.65
85623;BME280;76049;43.076;25.632;2024-03-23T20:44:02;98833.36;;;13.73;30.32
85623;BME280;76049;43.076;25.632;2024-03-23T20:49:12;98827.09;;;13.68;30.94
85623;BME280;76049;43.076;25.632;2024-03-23T20:54:20;98829.27;;;13.66;31.40
85623;BME280;76049;43.076;25.632;2024-03-23T20:59:28;98823.23;;;13.64;32.11
85623;BME280;76049;43.076;25.632;2024-03-23T21:04:35;98818.73;;;13.60;32.60
85623;BME280;76049;43.076;25.632;2024-03-23T21:09:42;98816.13;;;13.56;33.22
85623;BME280;76049;43.076;25.632;2024-03-23T21:14:48;98810.60;;;13.53;33.54
85623;BME280;76049;43.076;25.632;2024-03-23T21:19:56;98809.27;;;13.50;33.86
85623;BME280;76049;43.076;25.632;2024-03-23T21:25:03;98804.75;;;13.49;34.10
85623;BME280;76049;43.076;25.632;2024-03-23T21:30:11;98801.21;;;13.46;34.59
85623;BME280;76049;43.076;25.632;2024-03-23T21:35:18;98800.74;;;13.45;34.81
85623;BME280;76049;43.076;25.632;2024-03-23T21:40:26;98796.40;;;13.41;35.37
85623;BME280;76049;43.076;25.632;2024-03-23T21:45:33;98795.69;;;13.37;35.75
85623;BME280;76049;43.076;25.632;2024-03-23T21:50:40;98789.32;;;13.37;35.78
85623;BME280;76049;43.076;25.632;2024-03-23T21:55:53;98784.79;;;13.36;36.03
85623;BME280;76049;43.076;25.632;2024-03-23T22:01:04;98780.65;;;13.34;36.11
85623;BME280;76049;43.076;25.632;2024-03-23T22:06:12;98776.34;;;13.33;36.11
85623;BME280;76049;43.076;25.632;2024-03-23T22:11:18;98773.58;;;13.34;36.23
85623;BME280;76049;43.076;25.632;2024-03-23T22:16:25;98769.00;;;13.33;36.42
85623;BME280;76049;43.076;25.632;2024-03-23T22:21:32;98760.94;;;13.29;36.29
85623;BME280;76049;43.076;25.632;2024-03-23T22:26:39;98756.14;;;13.28;36.33
85623;BME280;76049;43.076;25.632;2024-03-23T22:31:45;98752.92;;;13.27;36.41
85623;BME280;76049;43.076;25.632;2024-03-23T22:36:52;98748.86;;;13.23;36.36
85623;BME280;76049;43.076;25.632;2024-03-23T22:42:00;98744.17;;;13.21;36.31
85623;BME280;76049;43.076;25.632;2024-03-23T22:47:07;98736.20;;;13.20;36.36
85623;BME280;76049;43.076;25.632;2024-03-23T22:52:14;98730.88;;;13.16;36.43
85623;BME280;76049;43.076;25.632;2024-03-23T22:57:21;98732.63;;;13.12;36.58
85623;BME280;76049;43.076;25.632;2024-03-23T23:02:28;98726.17;;;13.09;36.47
85623;BME280;76049;43.076;25.632;2024-03-23T23:07:35;98720.85;;;13.07;36.48
85623;BME280;76049;43.076;25.632;2024-03-23T23:12:42;98719.73;;;13.06;36.54
85623;BME280;76049;43.076;25.632;2024-03-23T23:17:49;98713.52;;;13.06;36.47
85623;BME280;76049;43.076;25.632;2024-03-23T23:22:56;98706.70;;;13.08;36.46
85623;BME280;76049;43.076;25.632;2024-03-23T23:28:03;98700.48;;;13.08;36.59
85623;BME280;76049;43.076;25.632;2024-03-23T23:33:26;98688.77;;;13.09;36.77
85623;BME280;76049;43.076;25.632;2024-03-23T23:38:35;98690.65;;;12.94;37.22
85623;BME280;76049;43.076;25.632;2024-03-23T23:43:52;98688.17;;;12.87;37.21
85623;BME280;76049;43.076;25.632;2024-03-23T23:49:00;98684.27;;;12.79;37.37
85623;BME280;76049;43.076;25.632;2024-03-23T23:54:07;98678.07;;;12.70;37.67
85623;BME280;76049;43.076;25.632;2024-03-23T23:59:15;98673.20;;;12.61;37.94
